sensor_id;sensor_type;location;lat;lon;timestamp;P1;durP1;ratioP1;P2;durP2;ratioP2
77955;SDS011;67152;36.266;32.294;2023-07-30T00:00:15;20.60;;;8.02;;
77955;SDS011;67152;36.266;32.294;2023-07-30T00:02:41;27.08;;;8.52;;
77955;SDS011;67152;36.266;32.294;2023-07-30T00:05:08;16.48;;;7.53;;
77955;SDS011;67152;36.266;32.294;2023-07-30T00:07:35;17.33;;;7.35;;
77955;SDS011;67152;36.266;32.294;2023-07-30T00:10:02;14.80;;;7.13;;
77955;SDS011;67152;36.266;32.294;2023-07-30T00:12:29;19.55;;;7.00;;
77955;SDS011;67152;36.266;32.294;2023-07-30T00:14:55;19.88;;;8.20;;
77955;SDS011;67152;36.266;32.294;2023-07-30T00:17:21;21.83;;;7.55;;
77955;SDS011;67152;36.266;32.294;2023-07-30T00:19:48;18.70;;;7.38;;
77955;SDS011;67152;36.266;32.294;2023-07-30T00:22:15;20.42;;;6.65;;
77955;SDS011;67152;36.266;32.294;2023-07-30T00:24:41;17.52;;;6.03;;
77955;SDS011;67152;36.266;32.294;2023-07-30T00:27:08;11.98;;;6.03;;
77955;SDS011;67152;36.266;32.294;2023-07-30T00:29:34;11.30;;;6.57;;
77955;SDS011;67152;36.266;32.294;2023-07-30T00:32:01;13.30;;;7.03;;
77955;SDS011;67152;36.266;32.294;2023-07-30T00:34:27;21.05;;;6.68;;
77955;SDS011;67152;36.266;32.294;2023-07-30T00:36:54;18.45;;;5.90;;
77955;SDS011;67152;36.266;32.294;2023-07-30T00:39:20;9.70;;;5.78;;
77955;SDS011;67152;36.266;32.294;2023-07-30T00:41:47;12.52;;;6.43;;
77955;SDS011;67152;36.266;32.294;2023-07-30T00:44:14;16.30;;;6.53;;
77955;SDS011;67152;36.266;32.294;2023-07-30T00:46:40;26.10;;;7.68;;
77955;SDS011;67152;36.266;32.294;2023-07-30T00:49:07;13.25;;;5.75;;
77955;SDS011;67152;36.266;32.294;2023-07-30T00:51:33;14.57;;;6.03;;
77955;SDS011;67152;36.266;32.294;2023-07-30T00:54:00;13.57;;;6.50;;
77955;SDS011;67152;36.266;32.294;2023-07-30T00:56:27;19.40;;;7.68;;
77955;SDS011;67152;36.266;32.294;2023-07-30T00:58:53;13.75;;;6.32;;
77955;SDS011;67152;36.266;32.294;2023-07-30T01:01:20;14.25;;;6.72;;
77955;SDS011;67152;36.266;32.294;2023-07-30T01:03:47;11.70;;;6.00;;
77955;SDS011;67152;36.266;32.294;2023-07-30T01:06:14;15.98;;;6.60;;
77955;SDS011;67152;36.266;32.294;2023-07-30T01:08:41;24.33;;;6.95;;
77955;SDS011;67152;36.266;32.294;2023-07-30T01:11:07;13.45;;;6.55;;
77955;SDS011;67152;36.266;32.294;2023-07-30T01:13:35;11.60;;;6.97;;
77955;SDS011;67152;36.266;32.294;2023-07-30T01:16:01;14.98;;;6.85;;
77955;SDS011;67152;36.266;32.294;2023-07-30T01:18:29;11.02;;;6.22;;
77955;SDS011;67152;36.266;32.294;2023-07-30T01:20:59;21.63;;;6.85;;
77955;SDS011;67152;36.266;32.294;2023-07-30T01:23:26;19.00;;;6.40;;
77955;SDS011;67152;36.266;32.294;2023-07-30T01:28:58;17.13;;;6.40;;
77955;SDS011;67152;36.266;32.294;2023-07-30T01:31:26;12.27;;;6.43;;
77955;SDS011;67152;36.266;32.294;2023-07-30T01:33:54;11.07;;;6.05;;
77955;SDS011;67152;36.266;32.294;2023-07-30T01:36:21;15.07;;;6.57;;
77955;SDS011;67152;36.266;32.294;2023-07-30T01:38:49;12.45;;;6.13;;
77955;SDS011;67152;36.266;32.294;2023-07-30T01:41:16;23.90;;;6.85;;
77955;SDS011;67152;36.266;32.294;2023-07-30T01:43:42;14.90;;;5.50;;
77955;SDS011;67152;36.266;32.294;2023-07-30T01:46:09;15.90;;;6.53;;
77955;SDS011;67152;36.266;32.294;2023-07-30T01:48:35;13.10;;;6.53;;
77955;SDS011;67152;36.266;32.294;2023-07-30T01:51:02;14.00;;;6.50;;
77955;SDS011;67152;36.266;32.294;2023-07-30T01:53:29;18.27;;;6.72;;
77955;SDS011;67152;36.266;32.294;2023-07-30T01:55:55;17.20;;;7.72;;
77955;SDS011;67152;36.266;32.294;2023-07-30T01:58:22;10.23;;;6.22;;
77955;SDS011;67152;36.266;32.294;2023-07-30T02:00:48;19.48;;;7.07;;
77955;SDS011;67152;36.266;32.294;2023-07-30T02:03:15;19.67;;;7.50;;
77955;SDS011;67152;36.266;32.294;2023-07-30T02:05:41;19.25;;;7.18;;
77955;SDS011;67152;36.266;32.294;2023-07-30T02:08:08;14.27;;;6.60;;
77955;SDS011;67152;36.266;32.294;2023-07-30T02:10:34;16.33;;;6.85;;
77955;SDS011;67152;36.266;32.294;2023-07-30T02:13:01;18.50;;;6.55;;
77955;SDS011;67152;36.266;32.294;2023-07-30T02:15:27;13.93;;;5.40;;
77955;SDS011;67152;36.266;32.294;2023-07-30T02:17:54;13.43;;;6.45;;
77955;SDS011;67152;36.266;32.294;2023-07-30T02:20:20;9.05;;;5.38;;
77955;SDS011;67152;36.266;32.294;2023-07-30T02:22:47;12.95;;;6.03;;
77955;SDS011;67152;36.266;32.294;2023-07-30T02:25:13;15.05;;;6.25;;
77955;SDS011;67152;36.266;32.294;2023-07-30T02:27:40;11.82;;;6.38;;
77955;SDS011;67152;36.266;32.294;2023-07-30T02:30:06;16.60;;;7.00;;
77955;SDS011;67152;36.266;32.294;2023-07-30T02:32:33;11.15;;;6.15;;
77955;SDS011;67152;36.266;32.294;2023-07-30T02:35:00;16.60;;;6.38;;
77955;SDS011;67152;36.266;32.294;2023-07-30T02:37:26;18.23;;;6.40;;
77955;SDS011;67152;36.266;32.294;2023-07-30T02:39:53;19.20;;;6.30;;
77955;SDS011;67152;36.266;32.294;2023-07-30T02:42:19;19.42;;;6.22;;
77955;SDS011;67152;36.266;32.294;2023-07-30T02:44:46;16.52;;;5.72;;
77955;SDS011;67152;36.266;32.294;2023-07-30T02:47:12;13.43;;;5.93;;
77955;SDS011;67152;36.266;32.294;2023-07-30T02:49:38;15.23;;;5.23;;
77955;SDS011;67152;36.266;32.294;2023-07-30T02:52:05;12.15;;;5.50;;
77955;SDS011;67152;36.266;32.294;2023-07-30T02:54:32;14.45;;;5.53;;
77955;SDS011;67152;36.266;32.294;2023-07-30T02:56:58;20.65;;;5.80;;
77955;SDS011;67152;36.266;32.294;2023-07-30T02:59:25;14.30;;;5.75;;
77955;SDS011;67152;36.266;32.294;2023-07-30T03:01:51;14.52;;;5.53;;
77955;SDS011;67152;36.266;32.294;2023-07-30T03:04:18;13.10;;;5.85;;
77955;SDS011;67152;36.266;32.294;2023-07-30T03:06:44;12.52;;;5.43;;
77955;SDS011;67152;36.266;32.294;2023-07-30T03:09:11;12.32;;;5.68;;
77955;SDS011;67152;36.266;32.294;2023-07-30T03:11:37;14.85;;;5.53;;
77955;SDS011;67152;36.266;32.294;2023-07-30T03:14:04;14.77;;;5.78;;
77955;SDS011;67152;36.266;32.294;2023-07-30T03:16:31;13.18;;;5.90;;
77955;SDS011;67152;36.266;32.294;2023-07-30T03:21:24;21.73;;;6.60;;
77955;SDS011;67152;36.266;32.294;2023-07-30T03:23:50;17.52;;;6.57;;
77955;SDS011;67152;36.266;32.294;2023-07-30T03:26:17;18.17;;;6.60;;
77955;SDS011;67152;36.266;32.294;2023-07-30T03:28:43;19.23;;;6.55;;
77955;SDS011;67152;36.266;32.294;2023-07-30T03:31:10;13.75;;;6.35;;
77955;SDS011;67152;36.266;32.294;2023-07-30T03:33:37;11.10;;;5.70;;
77955;SDS011;67152;36.266;32.294;2023-07-30T03:36:05;14.85;;;5.95;;
77955;SDS011;67152;36.266;32.294;2023-07-30T03:38:31;15.82;;;5.97;;
77955;SDS011;67152;36.266;32.294;2023-07-30T03:40:58;13.30;;;5.90;;
77955;SDS011;67152;36.266;32.294;2023-07-30T03:43:24;15.60;;;5.78;;
77955;SDS011;67152;36.266;32.294;2023-07-30T03:45:51;15.13;;;6.03;;
77955;SDS011;67152;36.266;32.294;2023-07-30T03:48:17;10.18;;;5.80;;
77955;SDS011;67152;36.266;32.294;2023-07-30T03:50:44;16.63;;;5.80;;
77955;SDS011;67152;36.266;32.294;2023-07-30T03:53:10;12.02;;;3.60;;
77955;SDS011;67152;36.266;32.294;2023-07-30T03:55:37;11.48;;;4.70;;
77955;SDS011;67152;36.266;32.294;2023-07-30T03:58:03;19.27;;;5.45;;
77955;SDS011;67152;36.266;32.294;2023-07-30T04:00:30;18.48;;;5.38;;
77955;SDS011;67152;36.266;32.294;2023-07-30T04:02:57;16.33;;;5.45;;
77955;SDS011;67152;36.266;32.294;2023-07-30T04:05:23;16.88;;;5.32;;
77955;SDS011;67152;36.266;32.294;2023-07-30T04:07:50;16.48;;;4.88;;
77955;SDS011;67152;36.266;32.294;2023-07-30T04:10:16;10.98;;;4.85;;
77955;SDS011;67152;36.266;32.294;2023-07-30T04:12:44;11.45;;;5.30;;
77955;SDS011;67152;36.266;32.294;2023-07-30T04:15:11;20.70;;;5.57;;
77955;SDS011;67152;36.266;32.294;2023-07-30T04:17:37;16.50;;;5.85;;
77955;SDS011;67152;36.266;32.294;2023-07-30T04:20:04;13.48;;;5.38;;
77955;SDS011;67152;36.266;32.294;2023-07-30T04:22:31;18.48;;;5.78;;
77955;SDS011;67152;36.266;32.294;2023-07-30T04:24:57;10.15;;;4.90;;
77955;SDS011;67152;36.266;32.294;2023-07-30T04:27:24;11.07;;;6.10;;
77955;SDS011;67152;36.266;32.294;2023-07-30T04:29:51;23.20;;;6.45;;
77955;SDS011;67152;36.266;32.294;2023-07-30T04:32:17;18.15;;;5.95;;
77955;SDS011;67152;36.266;32.294;2023-07-30T04:34:44;26.20;;;5.78;;
77955;SDS011;67152;36.266;32.294;2023-07-30T04:37:10;12.18;;;5.85;;
77955;SDS011;67152;36.266;32.294;2023-07-30T04:39:37;18.02;;;5.88;;
77955;SDS011;67152;36.266;32.294;2023-07-30T04:42:03;22.73;;;6.35;;
77955;SDS011;67152;36.266;32.294;2023-07-30T04:44:30;13.07;;;5.43;;
77955;SDS011;67152;36.266;32.294;2023-07-30T04:46:56;13.63;;;6.32;;
77955;SDS011;67152;36.266;32.294;2023-07-30T04:49:23;18.55;;;6.65;;
77955;SDS011;67152;36.266;32.294;2023-07-30T04:51:49;12.10;;;6.10;;
77955;SDS011;67152;36.266;32.294;2023-07-30T04:54:16;15.18;;;5.97;;
77955;SDS011;67152;36.266;32.294;2023-07-30T04:56:42;12.35;;;6.45;;
77955;SDS011;67152;36.266;32.294;2023-07-30T04:59:09;20.80;;;6.88;;
77955;SDS011;67152;36.266;32.294;2023-07-30T05:01:35;12.40;;;5.60;;
77955;SDS011;67152;36.266;32.294;2023-07-30T05:04:02;18.55;;;6.53;;
77955;SDS011;67152;36.266;32.294;2023-07-30T05:06:28;15.70;;;6.70;;
77955;SDS011;67152;36.266;32.294;2023-07-30T05:08:55;18.77;;;6.50;;
77955;SDS011;67152;36.266;32.294;2023-07-30T05:11:21;19.70;;;7.18;;
77955;SDS011;67152;36.266;32.294;2023-07-30T05:13:48;19.58;;;7.05;;
77955;SDS011;67152;36.266;32.294;2023-07-30T05:16:15;24.98;;;6.72;;
77955;SDS011;67152;36.266;32.294;2023-07-30T05:18:41;19.77;;;7.13;;
77955;SDS011;67152;36.266;32.294;2023-07-30T05:21:08;17.63;;;6.68;;
77955;SDS011;67152;36.266;32.294;2023-07-30T05:23:35;19.45;;;7.00;;
77955;SDS011;67152;36.266;32.294;2023-07-30T05:26:01;17.27;;;7.18;;
77955;SDS011;67152;36.266;32.294;2023-07-30T05:28:28;20.27;;;7.68;;
77955;SDS011;67152;36.266;32.294;2023-07-30T05:30:55;19.40;;;7.05;;
77955;SDS011;67152;36.266;32.294;2023-07-30T05:33:21;17.13;;;7.53;;
77955;SDS011;67152;36.266;32.294;2023-07-30T05:35:48;17.40;;;7.35;;
77955;SDS011;67152;36.266;32.294;2023-07-30T05:38:15;21.95;;;6.63;;
77955;SDS011;67152;36.266;32.294;2023-07-30T05:40:41;25.17;;;7.45;;
77955;SDS011;67152;36.266;32.294;2023-07-30T05:43:08;24.30;;;6.50;;
77955;SDS011;67152;36.266;32.294;2023-07-30T05:45:34;18.05;;;7.28;;
77955;SDS011;67152;36.266;32.294;2023-07-30T05:48:01;18.38;;;6.43;;
77955;SDS011;67152;36.266;32.294;2023-07-30T05:50:28;16.60;;;7.30;;
77955;SDS011;67152;36.266;32.294;2023-07-30T05:52:55;19.45;;;6.10;;
77955;SDS011;67152;36.266;32.294;2023-07-30T05:55:21;14.20;;;5.15;;
77955;SDS011;67152;36.266;32.294;2023-07-30T05:57:48;18.50;;;5.55;;
77955;SDS011;67152;36.266;32.294;2023-07-30T06:00:15;14.63;;;5.88;;
77955;SDS011;67152;36.266;32.294;2023-07-30T06:02:42;11.75;;;6.40;;
77955;SDS011;67152;36.266;32.294;2023-07-30T06:05:08;12.02;;;5.97;;
77955;SDS011;67152;36.266;32.294;2023-07-30T06:07:35;16.45;;;5.72;;
77955;SDS011;67152;36.266;32.294;2023-07-30T06:10:02;11.68;;;5.97;;
77955;SDS011;67152;36.266;32.294;2023-07-30T06:12:29;19.50;;;6.57;;
77955;SDS011;67152;36.266;32.294;2023-07-30T06:14:56;17.15;;;5.43;;
77955;SDS011;67152;36.266;32.294;2023-07-30T06:17:22;15.95;;;6.10;;
77955;SDS011;67152;36.266;32.294;2023-07-30T06:19:49;22.05;;;6.32;;
77955;SDS011;67152;36.266;32.294;2023-07-30T06:22:15;18.25;;;6.43;;
77955;SDS011;67152;36.266;32.294;2023-07-30T06:24:42;14.68;;;6.03;;
77955;SDS011;67152;36.266;32.294;2023-07-30T06:27:10;33.35;;;6.85;;
77955;SDS011;67152;36.266;32.294;2023-07-30T06:29:38;18.58;;;6.05;;
77955;SDS011;67152;36.266;32.294;2023-07-30T06:32:04;24.88;;;6.45;;
77955;SDS011;67152;36.266;32.294;2023-07-30T06:34:31;20.70;;;6.10;;
77955;SDS011;67152;36.266;32.294;2023-07-30T06:36:58;15.32;;;5.90;;
77955;SDS011;67152;36.266;32.294;2023-07-30T06:39:25;15.18;;;5.88;;
77955;SDS011;67152;36.266;32.294;2023-07-30T06:41:51;17.27;;;5.93;;
77955;SDS011;67152;36.266;32.294;2023-07-30T06:44:18;12.70;;;4.65;;
77955;SDS011;67152;36.266;32.294;2023-07-30T06:46:44;11.80;;;6.20;;
77955;SDS011;67152;36.266;32.294;2023-07-30T06:49:11;16.77;;;6.28;;
77955;SDS011;67152;36.266;32.294;2023-07-30T06:51:37;16.88;;;6.20;;
77955;SDS011;67152;36.266;32.294;2023-07-30T06:54:04;18.63;;;6.28;;
77955;SDS011;67152;36.266;32.294;2023-07-30T06:56:31;23.23;;;6.10;;
77955;SDS011;67152;36.266;32.294;2023-07-30T06:58:57;19.48;;;5.90;;
77955;SDS011;67152;36.266;32.294;2023-07-30T07:01:24;11.40;;;6.22;;
77955;SDS011;67152;36.266;32.294;2023-07-30T07:03:50;29.05;;;6.47;;
77955;SDS011;67152;36.266;32.294;2023-07-30T07:06:17;23.70;;;6.63;;
77955;SDS011;67152;36.266;32.294;2023-07-30T07:08:43;20.30;;;6.63;;
77955;SDS011;67152;36.266;32.294;2023-07-30T07:11:10;19.42;;;5.68;;
77955;SDS011;67152;36.266;32.294;2023-07-30T07:13:36;23.67;;;6.70;;
77955;SDS011;67152;36.266;32.294;2023-07-30T07:16:03;27.13;;;6.97;;
77955;SDS011;67152;36.266;32.294;2023-07-30T07:18:30;20.13;;;6.45;;
77955;SDS011;67152;36.266;32.294;2023-07-30T07:20:57;32.35;;;7.80;;
77955;SDS011;67152;36.266;32.294;2023-07-30T07:23:23;19.73;;;6.90;;
77955;SDS011;67152;36.266;32.294;2023-07-30T07:25:51;12.93;;;5.57;;
77955;SDS011;67152;36.266;32.294;2023-07-30T07:28:18;14.52;;;5.40;;
77955;SDS011;67152;36.266;32.294;2023-07-30T07:30:45;17.35;;;6.43;;
77955;SDS011;67152;36.266;32.294;2023-07-30T07:33:12;14.85;;;5.85;;
77955;SDS011;67152;36.266;32.294;2023-07-30T07:35:39;16.60;;;6.65;;
77955;SDS011;67152;36.266;32.294;2023-07-30T07:38:06;16.20;;;6.72;;
77955;SDS011;67152;36.266;32.294;2023-07-30T07:40:39;16.50;;;5.60;;
77955;SDS011;67152;36.266;32.294;2023-07-30T07:43:06;16.50;;;6.55;;
77955;SDS011;67152;36.266;32.294;2023-07-30T07:45:35;19.95;;;6.05;;
77955;SDS011;67152;36.266;32.294;2023-07-30T07:48:02;19.08;;;6.53;;
77955;SDS011;67152;36.266;32.294;2023-07-30T07:50:29;12.88;;;5.47;;
77955;SDS011;67152;36.266;32.294;2023-07-30T07:52:55;16.42;;;6.15;;
77955;SDS011;67152;36.266;32.294;2023-07-30T07:55:22;18.05;;;5.78;;
77955;SDS011;67152;36.266;32.294;2023-07-30T07:57:49;20.23;;;6.70;;
77955;SDS011;67152;36.266;32.294;2023-07-30T08:00:17;15.65;;;6.45;;
77955;SDS011;67152;36.266;32.294;2023-07-30T08:02:45;16.60;;;6.57;;
77955;SDS011;67152;36.266;32.294;2023-07-30T08:05:12;24.48;;;6.32;;
77955;SDS011;67152;36.266;32.294;2023-07-30T08:07:39;19.60;;;6.95;;
77955;SDS011;67152;36.266;32.294;2023-07-30T08:10:06;19.13;;;5.95;;
77955;SDS011;67152;36.266;32.294;2023-07-30T08:12:33;15.18;;;6.40;;
77955;SDS011;67152;36.266;32.294;2023-07-30T08:15:00;16.08;;;6.13;;
77955;SDS011;67152;36.266;32.294;2023-07-30T08:17:26;20.42;;;6.50;;
77955;SDS011;67152;36.266;32.294;2023-07-30T08:19:53;18.20;;;7.32;;
77955;SDS011;67152;36.266;32.294;2023-07-30T08:22:21;17.45;;;6.72;;
77955;SDS011;67152;36.266;32.294;2023-07-30T08:24:47;22.42;;;7.32;;
77955;SDS011;67152;36.266;32.294;2023-07-30T08:27:14;21.08;;;7.20;;
77955;SDS011;67152;36.266;32.294;2023-07-30T08:29:41;20.30;;;6.57;;
77955;SDS011;67152;36.266;32.294;2023-07-30T08:32:08;18.67;;;6.32;;
77955;SDS011;67152;36.266;32.294;2023-07-30T08:34:36;13.35;;;6.25;;
77955;SDS011;67152;36.266;32.294;2023-07-30T08:37:02;20.30;;;7.38;;
77955;SDS011;67152;36.266;32.294;2023-07-30T08:39:29;24.63;;;6.85;;
77955;SDS011;67152;36.266;32.294;2023-07-30T08:41:56;17.88;;;6.43;;
77955;SDS011;67152;36.266;32.294;2023-07-30T08:44:25;19.27;;;6.13;;
77955;SDS011;67152;36.266;32.294;2023-07-30T08:46:52;22.02;;;6.80;;
77955;SDS011;67152;36.266;32.294;2023-07-30T08:49:18;19.10;;;6.80;;
77955;SDS011;67152;36.266;32.294;2023-07-30T08:51:45;25.75;;;7.15;;
77955;SDS011;67152;36.266;32.294;2023-07-30T08:54:12;16.27;;;5.95;;
77955;SDS011;67152;36.266;32.294;2023-07-30T08:56:40;21.17;;;6.80;;
77955;SDS011;67152;36.266;32.294;2023-07-30T08:59:08;17.95;;;6.70;;
77955;SDS011;67152;36.266;32.294;2023-07-30T09:01:36;22.10;;;8.40;;
77955;SDS011;67152;36.266;32.294;2023-07-30T09:04:05;22.77;;;6.88;;
77955;SDS011;67152;36.266;32.294;2023-07-30T09:06:32;19.25;;;6.72;;
77955;SDS011;67152;36.266;32.294;2023-07-30T09:08:59;17.58;;;6.32;;
77955;SDS011;67152;36.266;32.294;2023-07-30T09:11:26;22.48;;;6.47;;
77955;SDS011;67152;36.266;32.294;2023-07-30T09:13:54;18.92;;;6.30;;
77955;SDS011;67152;36.266;32.294;2023-07-30T09:16:25;21.40;;;6.20;;
77955;SDS011;67152;36.266;32.294;2023-07-30T09:19:01;15.88;;;6.35;;
77955;SDS011;67152;36.266;32.294;2023-07-30T09:21:32;18.02;;;6.20;;
77955;SDS011;67152;36.266;32.294;2023-07-30T09:24:03;17.48;;;6.70;;
77955;SDS011;67152;36.266;32.294;2023-07-30T09:26:44;17.17;;;6.30;;
77955;SDS011;67152;36.266;32.294;2023-07-30T09:29:12;17.85;;;6.40;;
77955;SDS011;67152;36.266;32.294;2023-07-30T09:31:57;20.50;;;6.55;;
77955;SDS011;67152;36.266;32.294;2023-07-30T09:34:24;17.10;;;6.38;;
77955;SDS011;67152;36.266;32.294;2023-07-30T09:36:52;18.20;;;6.38;;
77955;SDS011;67152;36.266;32.294;2023-07-30T09:39:21;13.30;;;6.60;;
77955;SDS011;67152;36.266;32.294;2023-07-30T09:41:49;17.98;;;6.15;;
77955;SDS011;67152;36.266;32.294;2023-07-30T09:44:17;18.15;;;6.43;;
77955;SDS011;67152;36.266;32.294;2023-07-30T09:46:49;14.40;;;6.25;;
77955;SDS011;67152;36.266;32.294;2023-07-30T09:49:16;16.42;;;6.20;;
77955;SDS011;67152;36.266;32.294;2023-07-30T09:51:44;16.90;;;6.47;;
77955;SDS011;67152;36.266;32.294;2023-07-30T09:54:11;13.60;;;5.22;;
77955;SDS011;67152;36.266;32.294;2023-07-30T09:56:40;16.42;;;5.28;;
77955;SDS011;67152;36.266;32.294;2023-07-30T09:59:08;15.43;;;6.22;;
77955;SDS011;67152;36.266;32.294;2023-07-30T10:01:46;22.02;;;6.70;;
77955;SDS011;67152;36.266;32.294;2023-07-30T10:04:15;17.45;;;5.25;;
77955;SDS011;67152;36.266;32.294;2023-07-30T10:06:57;21.85;;;6.97;;
77955;SDS011;67152;36.266;32.294;2023-07-30T10:09:37;15.15;;;6.50;;
77955;SDS011;67152;36.266;32.294;2023-07-30T10:12:13;16.98;;;5.95;;
77955;SDS011;67152;36.266;32.294;2023-07-30T10:14:43;15.65;;;6.35;;
77955;SDS011;67152;36.266;32.294;2023-07-30T10:17:10;14.63;;;5.97;;
77955;SDS011;67152;36.266;32.294;2023-07-30T10:19:37;18.70;;;6.88;;
77955;SDS011;67152;36.266;32.294;2023-07-30T10:24:41;14.18;;;5.60;;
77955;SDS011;67152;36.266;32.294;2023-07-30T10:27:08;15.98;;;5.88;;
77955;SDS011;67152;36.266;32.294;2023-07-30T10:29:41;15.02;;;6.03;;
77955;SDS011;67152;36.266;32.294;2023-07-30T10:32:08;14.43;;;5.22;;
77955;SDS011;67152;36.266;32.294;2023-07-30T10:34:45;13.75;;;5.28;;
77955;SDS011;67152;36.266;32.294;2023-07-30T10:37:18;13.73;;;6.03;;
77955;SDS011;67152;36.266;32.294;2023-07-30T10:39:49;12.93;;;5.53;;
77955;SDS011;67152;36.266;32.294;2023-07-30T10:42:16;13.15;;;5.20;;
77955;SDS011;67152;36.266;32.294;2023-07-30T10:44:44;17.80;;;5.05;;
77955;SDS011;67152;36.266;32.294;2023-07-30T10:47:11;11.57;;;4.80;;
77955;SDS011;67152;36.266;32.294;2023-07-30T10:49:38;13.25;;;5.88;;
77955;SDS011;67152;36.266;32.294;2023-07-30T10:52:16;10.75;;;4.65;;
77955;SDS011;67152;36.266;32.294;2023-07-30T10:54:43;18.88;;;7.03;;
77955;SDS011;67152;36.266;32.294;2023-07-30T10:57:09;13.23;;;4.50;;
77955;SDS011;67152;36.266;32.294;2023-07-30T10:59:37;10.02;;;4.60;;
77955;SDS011;67152;36.266;32.294;2023-07-30T11:02:04;21.15;;;5.03;;
77955;SDS011;67152;36.266;32.294;2023-07-30T11:04:33;18.10;;;4.60;;
77955;SDS011;67152;36.266;32.294;2023-07-30T11:07:01;16.90;;;4.85;;
77955;SDS011;67152;36.266;32.294;2023-07-30T11:09:29;11.48;;;4.88;;
77955;SDS011;67152;36.266;32.294;2023-07-30T11:11:56;16.42;;;4.50;;
77955;SDS011;67152;36.266;32.294;2023-07-30T11:14:23;11.45;;;4.28;;
77955;SDS011;67152;36.266;32.294;2023-07-30T11:16:59;14.15;;;4.97;;
77955;SDS011;67152;36.266;32.294;2023-07-30T11:19:46;11.65;;;4.45;;
77955;SDS011;67152;36.266;32.294;2023-07-30T11:22:15;11.32;;;4.00;;
77955;SDS011;67152;36.266;32.294;2023-07-30T11:24:50;13.40;;;4.13;;
77955;SDS011;67152;36.266;32.294;2023-07-30T11:27:18;13.65;;;3.88;;
77955;SDS011;67152;36.266;32.294;2023-07-30T11:29:53;14.52;;;4.60;;
77955;SDS011;67152;36.266;32.294;2023-07-30T11:32:20;14.48;;;4.15;;
77955;SDS011;67152;36.266;32.294;2023-07-30T11:34:49;12.68;;;4.50;;
77955;SDS011;67152;36.266;32.294;2023-07-30T11:37:16;14.07;;;4.40;;
77955;SDS011;67152;36.266;32.294;2023-07-30T11:39:43;10.32;;;4.13;;
77955;SDS011;67152;36.266;32.294;2023-07-30T11:42:09;12.77;;;5.00;;
77955;SDS011;67152;36.266;32.294;2023-07-30T11:44:37;19.45;;;4.93;;
77955;SDS011;67152;36.266;32.294;2023-07-30T11:47:08;18.42;;;4.60;;
77955;SDS011;67152;36.266;32.294;2023-07-30T11:49:35;12.50;;;4.75;;
77955;SDS011;67152;36.266;32.294;2023-07-30T11:52:07;6.35;;;3.85;;
77955;SDS011;67152;36.266;32.294;2023-07-30T11:54:39;15.63;;;4.57;;
77955;SDS011;67152;36.266;32.294;2023-07-30T11:57:15;19.63;;;4.70;;
77955;SDS011;67152;36.266;32.294;2023-07-30T11:59:47;12.88;;;4.22;;
77955;SDS011;67152;36.266;32.294;2023-07-30T12:02:22;13.95;;;3.70;;
77955;SDS011;67152;36.266;32.294;2023-07-30T12:04:53;12.13;;;4.22;;
77955;SDS011;67152;36.266;32.294;2023-07-30T12:07:23;14.10;;;4.22;;
77955;SDS011;67152;36.266;32.294;2023-07-30T12:10:05;11.25;;;3.83;;
77955;SDS011;67152;36.266;32.294;2023-07-30T12:12:34;13.75;;;3.80;;
77955;SDS011;67152;36.266;32.294;2023-07-30T12:15:01;16.15;;;3.88;;
77955;SDS011;67152;36.266;32.294;2023-07-30T12:17:29;10.35;;;4.13;;
77955;SDS011;67152;36.266;32.294;2023-07-30T12:20:00;22.67;;;4.60;;
77955;SDS011;67152;36.266;32.294;2023-07-30T12:22:33;16.95;;;4.30;;
77955;SDS011;67152;36.266;32.294;2023-07-30T12:25:07;33.63;;;5.35;;
77955;SDS011;67152;36.266;32.294;2023-07-30T12:27:45;17.00;;;4.70;;
77955;SDS011;67152;36.266;32.294;2023-07-30T12:30:13;37.67;;;6.18;;
77955;SDS011;67152;36.266;32.294;2023-07-30T12:32:45;12.73;;;4.18;;
77955;SDS011;67152;36.266;32.294;2023-07-30T12:35:12;11.63;;;4.00;;
77955;SDS011;67152;36.266;32.294;2023-07-30T12:37:39;16.45;;;4.38;;
77955;SDS011;67152;36.266;32.294;2023-07-30T12:40:07;11.07;;;4.20;;
77955;SDS011;67152;36.266;32.294;2023-07-30T12:42:41;8.63;;;3.67;;
77955;SDS011;67152;36.266;32.294;2023-07-30T12:45:09;10.93;;;3.83;;
77955;SDS011;67152;36.266;32.294;2023-07-30T12:47:37;11.45;;;4.32;;
77955;SDS011;67152;36.266;32.294;2023-07-30T12:50:04;11.02;;;4.32;;
77955;SDS011;67152;36.266;32.294;2023-07-30T12:52:32;14.48;;;3.95;;
77955;SDS011;67152;36.266;32.294;2023-07-30T12:55:01;13.88;;;4.22;;
77955;SDS011;67152;36.266;32.294;2023-07-30T12:57:30;11.15;;;4.53;;
77955;SDS011;67152;36.266;32.294;2023-07-30T12:59:59;12.50;;;4.00;;
77955;SDS011;67152;36.266;32.294;2023-07-30T13:02:25;11.57;;;4.78;;
77955;SDS011;67152;36.266;32.294;2023-07-30T13:04:52;12.25;;;4.55;;
77955;SDS011;67152;36.266;32.294;2023-07-30T13:07:19;14.10;;;3.80;;
77955;SDS011;67152;36.266;32.294;2023-07-30T13:09:46;12.85;;;3.80;;
77955;SDS011;67152;36.266;32.294;2023-07-30T13:12:13;17.00;;;4.03;;
77955;SDS011;67152;36.266;32.294;2023-07-30T13:14:41;12.75;;;4.18;;
77955;SDS011;67152;36.266;32.294;2023-07-30T13:17:08;13.15;;;4.13;;
77955;SDS011;67152;36.266;32.294;2023-07-30T13:19:35;12.48;;;4.32;;
77955;SDS011;67152;36.266;32.294;2023-07-30T13:22:02;12.85;;;4.05;;
77955;SDS011;67152;36.266;32.294;2023-07-30T13:24:29;13.05;;;4.28;;
77955;SDS011;67152;36.266;32.294;2023-07-30T13:27:13;14.40;;;4.13;;
77955;SDS011;67152;36.266;32.294;2023-07-30T13:29:40;14.10;;;4.43;;
77955;SDS011;67152;36.266;32.294;2023-07-30T13:32:07;19.38;;;4.55;;
77955;SDS011;67152;36.266;32.294;2023-07-30T13:34:34;14.50;;;3.92;;
77955;SDS011;67152;36.266;32.294;2023-07-30T13:37:00;14.75;;;4.00;;
77955;SDS011;67152;36.266;32.294;2023-07-30T13:39:28;14.77;;;4.22;;
77955;SDS011;67152;36.266;32.294;2023-07-30T13:41:54;16.17;;;4.47;;
77955;SDS011;67152;36.266;32.294;2023-07-30T13:44:22;14.18;;;3.97;;
77955;SDS011;67152;36.266;32.294;2023-07-30T13:46:48;11.82;;;4.18;;
77955;SDS011;67152;36.266;32.294;2023-07-30T13:49:16;9.68;;;3.70;;
77955;SDS011;67152;36.266;32.294;2023-07-30T13:51:42;7.93;;;3.28;;
77955;SDS011;67152;36.266;32.294;2023-07-30T13:54:09;12.98;;;3.90;;
77955;SDS011;67152;36.266;32.294;2023-07-30T13:56:36;11.60;;;4.03;;
77955;SDS011;67152;36.266;32.294;2023-07-30T13:59:04;10.73;;;3.63;;
77955;SDS011;67152;36.266;32.294;2023-07-30T14:01:31;13.27;;;4.10;;
77955;SDS011;67152;36.266;32.294;2023-07-30T14:03:58;12.40;;;3.70;;
77955;SDS011;67152;36.266;32.294;2023-07-30T14:06:24;11.30;;;3.97;;
77955;SDS011;67152;36.266;32.294;2023-07-30T14:08:51;14.27;;;4.05;;
77955;SDS011;67152;36.266;32.294;2023-07-30T14:11:18;17.02;;;4.20;;
77955;SDS011;67152;36.266;32.294;2023-07-30T14:13:45;12.45;;;3.40;;
77955;SDS011;67152;36.266;32.294;2023-07-30T14:16:12;13.18;;;4.20;;
77955;SDS011;67152;36.266;32.294;2023-07-30T14:18:40;8.38;;;3.83;;
77955;SDS011;67152;36.266;32.294;2023-07-30T14:21:09;12.00;;;4.03;;
77955;SDS011;67152;36.266;32.294;2023-07-30T14:23:41;17.67;;;3.85;;
77955;SDS011;67152;36.266;32.294;2023-07-30T14:26:18;11.15;;;4.85;;
77955;SDS011;67152;36.266;32.294;2023-07-30T14:28:47;9.65;;;3.83;;
77955;SDS011;67152;36.266;32.294;2023-07-30T14:31:13;15.85;;;4.13;;